Time;durP1;ratioP1;P1;durP2;ratioP2;P2;SDS_P1;SDS_P2;PMS_P1;PMS_P2;Temp;Humidity;BMP_temperature;BMP_pressure;BME280_temperature;BME280_humidity;BME280_pressure;Samples;Min_cycle;Max_cycle;Signal;HPM_P1;HPM_P2
2022/09/13 00:00:53;;;;;;;3.88;3.58;;;15.70;99.90;;;;;;5075355;28;20205;-85
2022/09/13 00:03:21;;;;;;;5.18;3.92;;;15.70;99.90;;;;;;5075180;28;20209;-85
2022/09/13 00:05:50;;;;;;;3.65;3.35;;;15.70;99.90;;;;;;5075453;28;20213;-86
2022/09/13 00:08:18;;;;;;;3.85;3.55;;;15.60;99.90;;;;;;5075497;28;20225;-85
2022/09/13 00:10:48;;;;;;;4.47;3.72;;;15.60;99.90;;;;;;5075190;28;20236;-86
2022/09/13 00:13:17;;;;;;;2.90;2.70;;;15.60;99.90;;;;;;5075434;28;20213;-86
2022/09/13 00:15:47;;;;;;;3.42;3.13;;;15.50;99.90;;;;;;5075115;28;20212;-85
2022/09/13 00:18:17;;;;;;;3.05;2.85;;;15.50;99.90;;;;;;5075111;28;20228;-85
2022/09/13 00:20:45;;;;;;;3.13;2.88;;;15.50;99.90;;;;;;5074867;28;20205;-85
2022/09/13 00:23:14;;;;;;;3.17;2.97;;;15.40;99.90;;;;;;5075047;28;20212;-85
2022/09/13 00:25:42;;;;;;;3.08;2.88;;;15.40;99.90;;;;;;5075466;28;20209;-85
2022/09/13 00:28:12;;;;;;;2.88;2.70;;;15.30;99.90;;;;;;5074842;28;20233;-85
2022/09/13 00:30:40;;;;;;;2.80;2.60;;;15.30;99.90;;;;;;5074853;28;20224;-85
2022/09/13 00:33:08;;;;;;;3.10;2.90;;;15.20;99.90;;;;;;5075284;28;20212;-85
2022/09/13 00:35:36;;;;;;;2.95;2.75;;;15.10;99.90;;;;;;5074736;28;20205;-87
2022/09/13 00:38:05;;;;;;;3.65;3.35;;;15.10;99.90;;;;;;5074736;28;20225;-85
2022/09/13 00:40:37;;;;;;;3.03;2.67;;;15.10;99.90;;;;;;5074629;28;20208;-85
2022/09/13 00:43:16;;;;;;;5.95;2.65;;;15.00;99.90;;;;;;5074917;28;20216;-85
2022/09/13 00:45:45;;;;;;;3.70;3.40;;;15.00;99.90;;;;;;5074543;28;20211;-85
2022/09/13 00:48:20;;;;;;;2.83;2.63;;;15.00;99.90;;;;;;5074565;28;20255;-85
2022/09/13 00:50:53;;;;;;;2.85;2.65;;;14.90;99.90;;;;;;5074161;28;20252;-86
2022/09/13 00:53:25;;;;;;;3.75;3.35;;;14.90;99.90;;;;;;5074337;28;20238;-86
2022/09/13 00:55:59;;;;;;;3.22;2.63;;;14.90;99.90;;;;;;5074484;28;20205;-85
2022/09/13 00:58:34;;;;;;;3.08;2.78;;;14.90;99.90;;;;;;5074129;28;20236;-86
2022/09/13 01:01:04;;;;;;;2.60;2.40;;;14.80;99.90;;;;;;5074769;28;20223;-84
2022/09/13 01:03:35;;;;;;;3.63;3.33;;;14.70;99.90;;;;;;5074320;28;20230;-85
2022/09/13 01:06:07;;;;;;;3.13;2.92;;;14.70;99.90;;;;;;5074560;28;20197;-86
2022/09/13 01:08:37;;;;;;;2.80;2.60;;;14.70;99.90;;;;;;5074128;28;20232;-85
2022/09/13 01:11:12;;;;;;;2.97;2.75;;;14.60;99.90;;;;;;5073960;28;20228;-85
2022/09/13 01:13:42;;;;;;;3.60;2.83;;;14.60;99.90;;;;;;5073935;28;20204;-87
2022/09/13 01:16:10;;;;;;;3.85;3.15;;;14.60;99.90;;;;;;5073906;28;20284;-85
2022/09/13 01:18:38;;;;;;;3.30;3.10;;;14.60;99.90;;;;;;5073804;28;20229;-85
2022/09/13 01:21:39;;;;;;;2.53;2.33;;;14.50;99.90;;;;;;5073899;28;20197;-86
2022/09/13 01:24:33;;;;;;;3.05;2.85;;;14.50;99.90;;;;;;5074171;28;20212;-85
2022/09/13 01:27:21;;;;;;;4.88;3.13;;;14.40;99.90;;;;;;5051262;28;20213;-85
2022/09/13 01:30:08;;;;;;;3.00;2.80;;;14.40;99.90;;;;;;5073524;28;20236;-85
2022/09/13 01:33:07;;;;;;;2.83;2.63;;;14.40;99.90;;;;;;5072892;28;20205;-85
2022/09/13 01:35:47;;;;;;;2.97;2.78;;;14.40;99.90;;;;;;5073998;28;20201;-84
2022/09/13 01:38:36;;;;;;;3.15;2.85;;;14.40;99.90;;;;;;5073638;28;20232;-85
2022/09/13 01:41:19;;;;;;;3.67;3.38;;;14.30;99.90;;;;;;5073605;28;20207;-85
2022/09/13 01:43:55;;;;;;;5.50;3.33;;;14.30;99.90;;;;;;5073599;28;20228;-85
2022/09/13 01:46:32;;;;;;;3.30;3.10;;;14.30;99.90;;;;;;5073476;28;20208;-85
2022/09/13 01:49:07;;;;;;;3.58;3.28;;;14.20;99.90;;;;;;5073011;28;20263;-86
2022/09/13 01:51:43;;;;;;;3.00;2.80;;;14.20;99.90;;;;;;5073067;28;20266;-85
2022/09/13 01:54:20;;;;;;;3.58;3.28;;;14.20;99.90;;;;;;5073417;28;20216;-86
2022/09/13 01:56:55;;;;;;;3.55;3.25;;;14.20;99.90;;;;;;5073073;28;20208;-86
2022/09/13 01:59:35;;;;;;;4.82;3.47;;;14.20;99.90;;;;;;5073061;28;20227;-85
2022/09/13 02:02:10;;;;;;;2.97;2.78;;;14.20;99.90;;;;;;5073104;28;20209;-84
2022/09/13 02:04:43;;;;;;;3.42;3.17;;;14.10;99.90;;;;;;5073215;28;20291;-85
2022/09/13 02:07:16;;;;;;;3.20;2.90;;;14.10;99.90;;;;;;5073254;28;20189;-86
2022/09/13 02:09:49;;;;;;;3.60;3.30;;;14.10;99.90;;;;;;5072814;28;20225;-86
2022/09/13 02:12:21;;;;;;;3.95;3.65;;;14.10;99.90;;;;;;5072756;28;20258;-85
2022/09/13 02:14:55;;;;;;;2.90;2.70;;;14.10;99.90;;;;;;5072720;28;20208;-85
2022/09/13 02:17:29;;;;;;;3.42;3.13;;;14.10;99.90;;;;;;5072828;28;20204;-86
2022/09/13 02:19:59;;;;;;;5.13;3.72;;;14.10;99.90;;;;;;5072783;28;20219;-85
2022/09/13 02:22:32;;;;;;;3.53;3.22;;;14.00;99.90;;;;;;5073110;28;20205;-85
2022/09/13 02:25:06;;;;;;;3.85;3.55;;;14.00;99.90;;;;;;5072662;28;20205;-85
2022/09/13 02:27:37;;;;;;;3.00;2.80;;;13.90;99.90;;;;;;5072741;28;20210;-84
2022/09/13 02:30:09;;;;;;;3.58;3.28;;;13.80;99.90;;;;;;5072675;28;20209;-87
2022/09/13 02:32:41;;;;;;;3.40;2.95;;;13.80;99.90;;;;;;5072507;28;20221;-86
2022/09/13 02:35:14;;;;;;;3.05;2.78;;;13.80;99.90;;;;;;5072743;28;20213;-85
2022/09/13 02:37:46;;;;;;;2.78;2.58;;;13.80;99.90;;;;;;5072805;28;20208;-84
2022/09/13 02:40:21;;;;;;;3.25;2.95;;;13.70;99.90;;;;;;5072388;28;20205;-85
2022/09/13 02:42:55;;;;;;;3.28;3.03;;;13.70;99.90;;;;;;5072630;28;20291;-85
2022/09/13 02:45:31;;;;;;;3.17;2.88;;;13.60;99.90;;;;;;5072473;28;20209;-84
2022/09/13 02:48:09;;;;;;;2.95;2.75;;;13.60;99.90;;;;;;5072353;28;20228;-84
2022/09/13 02:50:45;;;;;;;3.95;3.53;;;13.60;99.90;;;;;;5072344;28;20227;-84
2022/09/13 02:53:20;;;;;;;3.50;3.20;;;13.70;99.90;;;;;;5072530;28;20232;-85
2022/09/13 02:55:55;;;;;;;9.23;3.35;;;13.60;99.90;;;;;;5073066;28;20478;-85
2022/09/13 02:58:29;;;;;;;3.17;2.97;;;13.60;99.90;;;;;;5072229;28;20228;-84
2022/09/13 03:00:58;;;;;;;3.42;3.13;;;13.60;99.90;;;;;;5072676;28;20212;-85
2022/09/13 03:03:27;;;;;;;4.75;4.03;;;13.60;99.90;;;;;;5072208;28;20287;-85
2022/09/13 03:05:56;;;;;;;3.05;2.85;;;13.60;99.90;;;;;;5072506;28;20201;-85
2022/09/13 03:08:25;;;;;;;3.28;2.97;;;13.60;99.90;;;;;;5071922;28;20217;-85
2022/09/13 03:11:12;;;;;;;2.95;2.75;;;13.60;99.90;;;;;;5072145;28;20220;-85
2022/09/13 03:13:55;;;;;;;2.92;2.72;;;13.50;99.90;;;;;;5073032;28;20200;-85
2022/09/13 03:16:41;;;;;;;3.17;2.88;;;13.50;99.90;;;;;;5072578;28;20212;-86
2022/09/13 03:19:25;;;;;;;2.78;2.55;;;13.50;99.90;;;;;;5072036;28;20232;-85
2022/09/13 03:22:10;;;;;;;3.58;3.15;;;13.50;99.90;;;;;;5072568;28;20204;-85
2022/09/13 03:24:49;;;;;;;4.05;3.65;;;13.50;99.90;;;;;;5072330;28;20212;-85
2022/09/13 03:27:24;;;;;;;3.70;3.40;;;13.50;99.90;;;;;;5072316;28;20204;-86
2022/09/13 03:29:58;;;;;;;4.57;3.42;;;13.50;99.90;;;;;;5071750;28;20238;-85
2022/09/13 03:32:36;;;;;;;3.90;3.60;;;13.50;99.90;;;;;;5072195;28;20316;-85
2022/09/13 03:35:14;;;;;;;3.92;3.63;;;13.50;99.90;;;;;;5072165;28;20215;-85
2022/09/13 03:37:52;;;;;;;4.18;3.88;;;13.40;99.90;;;;;;5071926;28;20201;-85
2022/09/13 03:40:25;;;;;;;3.88;3.58;;;13.40;99.90;;;;;;5072043;28;20215;-85
2022/09/13 03:43:00;;;;;;;3.78;3.47;;;13.40;99.90;;;;;;5072023;28;20209;-85
2022/09/13 03:45:34;;;;;;;4.28;3.90;;;13.40;99.90;;;;;;5072032;28;20209;-85
2022/09/13 03:48:05;;;;;;;4.85;4.35;;;13.40;99.90;;;;;;5071764;28;20224;-85
2022/09/13 03:50:36;;;;;;;4.13;3.70;;;13.40;99.90;;;;;;5071585;28;20216;-85
2022/09/13 03:53:08;;;;;;;4.90;4.50;;;13.40;99.90;;;;;;5071708;28;20217;-85
2022/09/13 03:55:40;;;;;;;4.15;3.85;;;13.30;99.90;;;;;;5072666;28;20205;-86
2022/09/13 03:58:11;;;;;;;5.97;4.93;;;13.30;99.90;;;;;;5075513;28;20221;-85
2022/09/13 04:00:40;;;;;;;4.35;3.97;;;13.30;99.90;;;;;;5075368;28;20216;-85
2022/09/13 04:03:09;;;;;;;5.50;5.00;;;13.30;99.90;;;;;;5075390;28;20272;-85
2022/09/13 04:05:39;;;;;;;6.50;4.95;;;13.30;99.90;;;;;;5075645;28;20209;-85
2022/09/13 04:08:07;;;;;;;5.30;4.80;;;13.30;99.90;;;;;;5075298;28;20221;-84
2022/09/13 04:10:37;;;;;;;5.47;4.45;;;13.20;99.90;;;;;;5075018;28;20212;-84
2022/09/13 04:13:05;;;;;;;6.53;5.38;;;13.20;99.90;;;;;;5074898;28;20217;-85
2022/09/13 04:15:33;;;;;;;5.07;4.68;;;13.20;99.90;;;;;;5075097;28;20213;-84
2022/09/13 04:18:01;;;;;;;4.85;4.45;;;13.20;99.90;;;;;;5075090;28;20220;-85
2022/09/13 04:20:30;;;;;;;5.68;5.18;;;13.20;99.90;;;;;;5075218;28;20220;-84
2022/09/13 04:22:59;;;;;;;6.22;4.55;;;13.20;99.90;;;;;;5075198;28;20197;-84
2022/09/13 04:25:28;;;;;;;5.57;5.05;;;13.20;99.90;;;;;;5074863;28;20213;-84
2022/09/13 04:27:58;;;;;;;5.50;5.00;;;13.20;99.90;;;;;;5074587;28;20248;-84
2022/09/13 04:30:27;;;;;;;5.65;5.07;;;13.20;99.90;;;;;;5075282;28;20205;-84
2022/09/13 04:32:58;;;;;;;4.75;4.32;;;13.20;99.90;;;;;;5075501;28;20229;-85
2022/09/13 04:35:27;;;;;;;7.38;5.72;;;13.10;99.90;;;;;;5074528;28;20197;-85
2022/09/13 04:37:57;;;;;;;5.82;5.32;;;13.10;99.90;;;;;;5074672;28;20217;-85
2022/09/13 04:40:26;;;;;;;5.90;5.40;;;13.10;99.90;;;;;;5074370;28;20212;-85
2022/09/13 04:42:54;;;;;;;5.82;5.30;;;13.10;99.90;;;;;;5074974;28;20205;-85
2022/09/13 04:45:23;;;;;;;9.15;6.50;;;13.10;99.90;;;;;;5074584;28;20207;-85
2022/09/13 04:47:52;;;;;;;6.20;5.43;;;13.10;99.90;;;;;;5074495;28;20303;-85
2022/09/13 04:50:21;;;;;;;6.50;5.88;;;13.10;99.90;;;;;;5073981;28;20215;-85
2022/09/13 04:52:50;;;;;;;5.38;4.80;;;13.10;99.90;;;;;;5074262;28;20228;-85
2022/09/13 04:55:18;;;;;;;4.93;4.45;;;13.10;99.90;;;;;;5074549;28;20212;-85
2022/09/13 04:57:52;;;;;;;5.22;4.72;;;13.10;99.90;;;;;;5074339;28;20205;-85
2022/09/13 05:00:20;;;;;;;3.97;3.60;;;13.10;99.90;;;;;;5074360;28;20209;-85
2022/09/13 05:02:49;;;;;;;5.10;4.50;;;13.10;99.90;;;;;;5074333;28;20205;-85
2022/09/13 05:05:17;;;;;;;4.28;3.90;;;13.10;99.90;;;;;;5074093;28;20220;-85
2022/09/13 05:07:45;;;;;;;4.43;3.58;;;13.10;99.90;;;;;;5073016;28;20214;-84
2022/09/13 05:10:13;;;;;;;5.72;4.50;;;13.10;99.90;;;;;;5073893;28;20208;-85
2022/09/13 05:12:47;;;;;;;4.97;4.43;;;13.10;99.90;;;;;;5074135;28;20216;-84
2022/09/13 05:15:16;;;;;;;4.80;4.13;;;13.10;99.90;;;;;;5073977;28;20198;-84
2022/09/13 05:17:44;;;;;;;6.20;4.95;;;13.20;99.90;;;;;;5073786;28;20209;-85
2022/09/13 05:20:12;;;;;;;7.95;5.63;;;13.20;99.90;;;;;;5073504;28;20228;-84
2022/09/13 05:22:41;;;;;;;5.78;5.25;;;13.20;99.90;;;;;;5073853;28;20284;-84
2022/09/13 05:25:09;;;;;;;6.22;5.70;;;13.30;99.90;;;;;;5074134;28;20205;-84
2022/09/13 05:27:38;;;;;;;5.85;5.38;;;13.30;99.90;;;;;;5073590;28;20216;-85
2022/09/13 05:30:08;;;;;;;6.65;5.90;;;13.30;99.90;;;;;;5073524;28;20213;-85
2022/09/13 05:32:36;;;;;;;6.30;5.70;;;13.40;99.90;;;;;;5073467;28;20229;-85
2022/09/13 05:35:05;;;;;;;7.55;6.78;;;13.40;99.90;;;;;;5073534;28;20216;-85
2022/09/13 05:37:33;;;;;;;6.05;5.55;;;13.40;99.90;;;;;;5073414;28;20209;-85
2022/09/13 05:40:02;;;;;;;6.40;5.80;;;13.40;99.90;;;;;;5073642;28;20212;-85
2022/09/13 05:42:39;;;;;;;5.38;4.88;;;13.50;99.90;;;;;;5073684;28;20259;-85
2022/09/13 05:45:10;;;;;;;6.53;5.68;;;13.50;99.90;;;;;;5073380;28;20205;-85
2022/09/13 05:47:38;;;;;;;5.28;4.78;;;13.50;99.90;;;;;;5073238;28;20212;-85
2022/09/13 05:50:07;;;;;;;7.22;5.75;;;13.50;99.90;;;;;;5072940;28;20201;-85
2022/09/13 05:52:40;;;;;;;6.80;5.82;;;13.60;99.90;;;;;;5073590;28;20258;-85
2022/09/13 05:55:10;;;;;;;6.80;5.95;;;13.60;99.90;;;;;;5073183;28;20205;-85
2022/09/13 05:57:38;;;;;;;7.35;6.65;;;13.60;99.90;;;;;;5072943;28;20211;-85
2022/09/13 06:00:10;;;;;;;7.13;6.45;;;13.70;99.90;;;;;;5072991;28;20208;-85
2022/09/13 06:02:38;;;;;;;8.30;6.45;;;13.70;99.90;;;;;;5073008;28;20205;-85
2022/09/13 06:05:07;;;;;;;7.25;6.53;;;13.70;99.90;;;;;;5073151;28;20212;-85
2022/09/13 06:07:35;;;;;;;8.13;6.60;;;13.80;99.90;;;;;;5072872;28;20205;-85
2022/09/13 06:10:04;;;;;;;7.50;5.75;;;13.80;99.90;;;;;;5072572;28;20216;-85
2022/09/13 06:12:32;;;;;;;6.72;5.97;;;13.90;99.90;;;;;;5073233;28;20230;-85
2022/09/13 06:15:00;;;;;;;6.72;5.97;;;13.90;99.90;;;;;;5072511;28;20252;-85
2022/09/13 06:17:30;;;;;;;5.82;5.30;;;14.00;99.90;;;;;;5072855;28;20212;-85
2022/09/13 06:19:58;;;;;;;6.10;5.55;;;14.00;99.90;;;;;;5072585;28;20260;-85
2022/09/13 06:22:31;;;;;;;6.95;5.63;;;14.10;99.90;;;;;;5072779;28;20205;-85
2022/09/13 06:25:00;;;;;;;8.75;5.95;;;14.10;99.90;;;;;;5072978;28;20197;-85
2022/09/13 06:27:30;;;;;;;5.85;5.25;;;14.20;99.90;;;;;;5072754;28;20208;-85
2022/09/13 06:29:58;;;;;;;5.85;5.25;;;14.20;99.90;;;;;;5072527;28;20224;-85
2022/09/13 06:32:26;;;;;;;4.28;3.88;;;14.20;99.90;;;;;;5073197;28;20212;-85
2022/09/13 06:34:56;;;;;;;5.32;4.93;;;14.30;99.90;;;;;;5072694;28;20220;-84
2022/09/13 06:37:25;;;;;;;5.10;4.70;;;14.40;99.90;;;;;;5072832;28;20201;-85
2022/09/13 06:39:53;;;;;;;6.88;5.40;;;14.40;99.90;;;;;;5072496;28;20225;-85
2022/09/13 06:42:21;;;;;;;5.15;4.70;;;14.50;99.90;;;;;;5072613;28;20209;-85
2022/09/13 06:44:49;;;;;;;4.57;4.15;;;14.60;99.90;;;;;;5072650;28;20212;-85
2022/09/13 06:47:18;;;;;;;5.88;4.50;;;14.60;99.90;;;;;;5072780;28;20204;-86
2022/09/13 06:49:46;;;;;;;5.78;5.28;;;14.80;99.90;;;;;;5072024;28;20229;-85
2022/09/13 06:52:16;;;;;;;6.80;5.40;;;14.80;99.90;;;;;;5072433;28;20216;-85
2022/09/13 06:54:44;;;;;;;5.43;4.65;;;14.90;99.90;;;;;;5072194;28;20221;-87
2022/09/13 06:57:13;;;;;;;5.05;4.65;;;15.00;99.90;;;;;;5072205;28;20205;-85
2022/09/13 06:59:41;;;;;;;5.32;4.75;;;15.00;99.90;;;;;;5072338;28;20221;-85
2022/09/13 07:02:10;;;;;;;5.40;4.90;;;15.20;99.90;;;;;;5072522;28;20204;-85
2022/09/13 07:04:38;;;;;;;5.10;3.70;;;15.20;99.90;;;;;;5072633;28;20200;-85
2022/09/13 07:07:06;;;;;;;4.40;4.00;;;15.30;99.90;;;;;;5072371;28;20201;-86
2022/09/13 07:09:36;;;;;;;3.63;3.15;;;15.40;99.90;;;;;;5070780;28;20239;-85
2022/09/13 07:12:06;;;;;;;3.20;2.90;;;15.50;99.90;;;;;;5072378;28;20201;-85
2022/09/13 07:14:34;;;;;;;3.80;3.25;;;15.50;99.90;;;;;;5072316;28;20224;-85
2022/09/13 07:17:03;;;;;;;3.13;2.92;;;15.60;99.90;;;;;;5072432;28;20220;-85
2022/09/13 07:19:31;;;;;;;2.83;2.63;;;15.60;99.90;;;;;;5072034;28;20237;-85
2022/09/13 07:22:00;;;;;;;3.03;2.83;;;15.70;99.90;;;;;;5072300;28;20212;-85
2022/09/13 07:24:28;;;;;;;4.00;3.25;;;15.80;99.90;;;;;;5072320;28;20208;-85
2022/09/13 07:26:58;;;;;;;2.97;2.78;;;15.90;99.90;;;;;;5072395;28;20208;-84
2022/09/13 07:29:26;;;;;;;7.80;2.90;;;15.90;99.90;;;;;;5072145;28;20236;-85
2022/09/13 07:31:57;;;;;;;2.70;2.45;;;16.00;99.90;;;;;;5074809;28;20211;-84
2022/09/13 07:34:27;;;;;;;4.13;2.60;;;16.10;99.90;;;;;;5075738;28;20225;-85
2022/09/13 07:36:55;;;;;;;3.03;2.72;;;16.10;99.90;;;;;;5076104;28;20213;-84
2022/09/13 07:39:23;;;;;;;2.30;2.20;;;16.10;99.90;;;;;;5075868;28;20240;-85
2022/09/13 07:41:52;;;;;;;2.40;2.20;;;16.10;99.90;;;;;;5075940;28;20209;-85
2022/09/13 07:44:23;;;;;;;2.97;2.67;;;16.20;99.90;;;;;;5075719;28;20233;-85
2022/09/13 07:46:51;;;;;;;2.45;2.22;;;16.20;99.90;;;;;;5075826;28;20291;-86
2022/09/13 07:49:20;;;;;;;4.60;2.40;;;16.30;99.90;;;;;;5075219;28;20239;-85
2022/09/13 07:51:50;;;;;;;2.70;2.47;;;16.40;99.90;;;;;;5075490;28;20211;-85
2022/09/13 07:54:19;;;;;;;3.45;2.90;;;16.50;99.90;;;;;;5075750;28;20216;-85
2022/09/13 07:56:49;;;;;;;3.90;3.05;;;16.50;99.90;;;;;;5075442;28;20236;-85
2022/09/13 07:59:18;;;;;;;4.35;3.30;;;16.60;99.90;;;;;;5075146;28;20290;-86
2022/09/13 08:01:49;;;;;;;2.90;2.70;;;16.70;99.90;;;;;;5075325;28;20216;-86
2022/09/13 08:04:20;;;;;;;2.85;2.65;;;16.80;99.90;;;;;;5075308;28;20201;-84
2022/09/13 08:06:48;;;;;;;2.38;2.17;;;17.00;99.90;;;;;;5075365;28;20209;-85
2022/09/13 08:09:17;;;;;;;2.25;2.15;;;17.20;99.90;;;;;;5075382;28;20248;-85
2022/09/13 08:11:48;;;;;;;3.05;2.35;;;17.40;99.90;;;;;;5075344;28;20213;-85
2022/09/13 08:14:18;;;;;;;2.20;1.92;;;17.60;99.90;;;;;;5074996;28;20217;-85
2022/09/13 08:16:48;;;;;;;4.30;2.72;;;17.70;99.90;;;;;;5075610;28;20228;-85
2022/09/13 08:19:17;;;;;;;2.20;2.08;;;17.90;99.90;;;;;;5074927;28;20290;-85
2022/09/13 08:21:47;;;;;;;2.53;2.30;;;18.10;99.90;;;;;;5075477;28;20212;-84
2022/09/13 08:24:16;;;;;;;3.88;2.42;;;18.40;99.90;;;;;;5075280;28;20201;-85
2022/09/13 08:26:46;;;;;;;2.80;2.25;;;18.50;99.90;;;;;;5074766;28;20213;-84
2022/09/13 08:29:15;;;;;;;1.90;1.80;;;18.80;99.90;;;;;;5074642;28;20236;-86
2022/09/13 08:31:44;;;;;;;2.00;1.90;;;19.20;99.90;;;;;;5074512;28;20205;-86
2022/09/13 08:34:14;;;;;;;2.70;2.47;;;19.30;99.90;;;;;;5075094;28;20231;-86
2022/09/13 08:36:43;;;;;;;2.00;1.90;;;19.60;99.90;;;;;;5075082;28;20220;-86
2022/09/13 08:39:12;;;;;;;2.67;2.47;;;20.10;99.90;;;;;;5074200;28;20235;-86
2022/09/13 08:42:20;;;;;;;2.22;2.03;;;20.40;99.90;;;;;;5074239;28;20201;-86
2022/09/13 08:44:51;;;;;;;3.05;2.33;;;21.00;99.90;;;;;;5053889;28;20205;-86
2022/09/13 08:47:31;;;;;;;2.63;2.42;;;21.60;99.90;;;;;;5074931;28;20204;-86
2022/09/13 08:50:11;;;;;;;2.17;2.03;;;22.20;99.90;;;;;;5074039;28;20215;-86
2022/09/13 08:52:47;;;;;;;2.70;2.50;;;23.00;99.90;;;;;;5074541;28;20209;-86
2022/09/13 08:55:24;;;;;;;2.30;2.10;;;23.20;99.90;;;;;;5074244;28;20228;-86
2022/09/13 08:57:59;;;;;;;2.65;2.45;;;23.30;99.90;;;;;;5074715;28;20212;-86
2022/09/13 09:00:35;;;;;;;2.80;2.60;;;23.20;99.90;;;;;;5074173;28;20208;-85
2022/09/13 09:03:18;;;;;;;2.72;2.53;;;23.40;99.90;;;;;;5074401;28;20220;-85
2022/09/13 09:05:49;;;;;;;2.80;2.60;;;23.60;99.90;;;;;;5074240;28;20239;-86
2022/09/13 09:08:30;;;;;;;3.13;2.92;;;23.70;99.90;;;;;;5073976;28;20233;-86
2022/09/13 09:11:02;;;;;;;2.47;2.38;;;23.90;99.90;;;;;;5073755;28;20263;-86
2022/09/13 09:13:34;;;;;;;3.45;2.83;;;24.40;99.90;;;;;;5074303;28;20209;-85
2022/09/13 09:16:08;;;;;;;3.20;2.80;;;24.80;99.90;;;;;;5074019;28;20224;-86
2022/09/13 09:18:39;;;;;;;3.20;2.90;;;25.20;99.90;;;;;;5073974;28;20221;-86
2022/09/13 09:21:15;;;;;;;2.88;2.67;;;25.30;99.90;;;;;;5073887;28;20197;-85
2022/09/13 09:23:50;;;;;;;3.05;2.75;;;25.50;99.90;;;;;;5074005;28;20205;-85
2022/09/13 09:26:21;;;;;;;2.92;2.72;;;25.60;99.90;;;;;;5074106;28;20188;-86
2022/09/13 09:28:54;;;;;;;3.33;2.53;;;25.50;99.90;;;;;;5073628;28;20236;-85
2022/09/13 09:31:33;;;;;;;2.95;2.75;;;25.90;99.90;;;;;;5073808;28;20217;-85
2022/09/13 09:34:11;;;;;;;3.55;2.65;;;25.80;99.90;;;;;;5073598;28;20212;-85
2022/09/13 09:36:45;;;;;;;2.53;2.30;;;26.00;99.50;;;;;;5073465;28;20274;-85
2022/09/13 09:39:15;;;;;;;12.85;2.55;;;26.60;99.90;;;;;;5073389;28;20228;-85
2022/09/13 09:41:44;;;;;;;2.70;2.50;;;26.90;99.90;;;;;;5073613;28;20288;-85
2022/09/13 09:44:19;;;;;;;3.33;2.97;;;27.10;99.20;;;;;;5073549;28;20205;-86
2022/09/13 09:46:51;;;;;;;3.08;2.72;;;27.40;99.70;;;;;;5073720;28;20196;-85
2022/09/13 09:52:18;;;;;;;2.67;2.47;;;27.60;97.30;;;;;;5073405;28;20211;-85
2022/09/13 09:54:48;;;;;;;3.00;2.80;;;27.70;96.20;;;;;;5072426;28;20208;-86
2022/09/13 09:57:19;;;;;;;2.80;2.58;;;27.30;96.80;;;;;;5073159;28;20209;-85
2022/09/13 09:59:47;;;;;;;2.60;2.40;;;27.00;97.50;;;;;;5072961;28;20287;-85
2022/09/13 10:02:19;;;;;;;2.72;2.53;;;27.20;97.20;;;;;;5073264;28;20216;-86
2022/09/13 10:04:59;;;;;;;2.65;2.45;;;27.20;97.30;;;;;;5073065;28;20216;-85
2022/09/13 10:07:32;;;;;;;2.97;2.78;;;27.30;97.20;;;;;;5073318;28;20216;-85
2022/09/13 10:10:02;;;;;;;3.00;2.78;;;27.00;97.50;;;;;;5072835;28;20215;-85
2022/09/13 10:12:34;;;;;;;2.60;2.40;;;26.90;97.40;;;;;;5073100;28;20205;-85
2022/09/13 10:15:14;;;;;;;2.78;2.58;;;27.00;96.70;;;;;;5072947;28;20205;-86
2022/09/13 10:17:43;;;;;;;2.03;1.92;;;27.10;96.90;;;;;;5072641;28;20201;-86
2022/09/13 10:20:22;;;;;;;3.22;2.65;;;27.10;96.20;;;;;;5072838;28;20215;-86
2022/09/13 10:23:20;;;;;;;2.72;2.53;;;26.90;96.00;;;;;;5072738;28;20295;-86
2022/09/13 10:26:10;;;;;;;2.80;2.60;;;27.10;97.30;;;;;;5072958;28;20211;-87
2022/09/13 10:28:44;;;;;;;2.63;2.42;;;27.50;96.20;;;;;;5072729;28;20239;-87
2022/09/13 10:31:14;;;;;;;2.35;2.25;;;27.40;95.50;;;;;;5072881;28;20211;-86
2022/09/13 10:33:54;;;;;;;2.60;2.45;;;27.20;96.40;;;;;;5072637;28;20387;-86
2022/09/13 10:36:26;;;;;;;4.63;3.15;;;27.10;94.80;;;;;;5072591;28;20224;-86
2022/09/13 10:39:20;;;;;;;2.88;2.67;;;27.20;95.40;;;;;;5072267;28;20225;-86
2022/09/13 10:41:55;;;;;;;2.67;2.47;;;27.00;96.00;;;;;;5072443;28;20296;-88
2022/09/13 10:44:34;;;;;;;2.42;2.22;;;27.10;95.90;;;;;;5072572;28;20211;-87
2022/09/13 10:47:06;;;;;;;3.20;2.90;;;27.40;95.20;;;;;;5072395;28;20208;-88
2022/09/13 10:49:46;;;;;;;2.80;2.60;;;27.60;95.20;;;;;;5072303;28;20304;-88
2022/09/13 10:52:42;;;;;;;2.50;2.30;;;27.90;93.50;;;;;;5072410;28;20197;-87
2022/09/13 10:55:30;;;;;;;2.78;2.58;;;27.90;94.30;;;;;;5063361;28;20211;-87
2022/09/13 10:58:19;;;;;;;2.85;2.65;;;28.20;95.10;;;;;;5072318;28;20232;-86
2022/09/13 11:01:23;;;;;;;2.65;2.45;;;28.40;94.40;;;;;;5072309;28;20205;-87
2022/09/13 11:04:29;;;;;;;2.55;2.35;;;28.50;94.50;;;;;;5072650;28;20250;-87
2022/09/13 11:07:11;;;;;;;3.13;2.75;;;29.00;93.50;;;;;;5075210;28;20200;-88
2022/09/13 11:09:48;;;;;;;2.40;2.30;;;29.20;92.50;;;;;;5075732;28;20231;-86
2022/09/13 11:12:21;;;;;;;2.50;2.30;;;29.40;93.40;;;;;;5076369;28;20208;-87
2022/09/13 11:15:01;;;;;;;2.83;2.63;;;29.20;91.90;;;;;;5076128;28;20223;-87
2022/09/13 11:17:42;;;;;;;2.90;2.70;;;29.40;92.90;;;;;;5076036;28;20220;-86
2022/09/13 11:20:17;;;;;;;3.90;2.90;;;29.30;91.60;;;;;;5075860;28;20207;-86
2022/09/13 11:23:02;;;;;;;2.65;2.42;;;29.10;91.30;;;;;;5075920;28;20211;-87
2022/09/13 11:25:49;;;;;;;2.88;2.55;;;29.40;91.90;;;;;;5075967;28;20215;-86
2022/09/13 11:28:30;;;;;;;2.20;2.05;;;30.00;90.00;;;;;;5075826;28;20244;-87
2022/09/13 11:31:19;;;;;;;2.72;2.53;;;30.30;88.80;;;;;;5076144;28;20201;-86
2022/09/13 11:33:58;;;;;;;3.72;2.38;;;30.30;90.10;;;;;;5075848;28;20291;-86
2022/09/13 11:36:49;;;;;;;2.65;2.45;;;30.50;89.50;;;;;;5075721;28;20332;-87
2022/09/13 11:39:30;;;;;;;3.08;2.88;;;31.00;89.60;;;;;;5075646;28;20225;-87
2022/09/13 11:42:13;;;;;;;3.80;2.47;;;31.00;88.60;;;;;;5075800;28;20205;-86
2022/09/13 11:44:55;;;;;;;2.45;2.30;;;31.30;87.00;;;;;;5075771;28;20213;-87
2022/09/13 11:47:39;;;;;;;2.83;2.53;;;31.50;84.40;;;;;;5075576;28;20215;-87
2022/09/13 11:50:29;;;;;;;2.35;2.15;;;31.60;81.80;;;;;;5075057;28;20205;-87
2022/09/13 11:53:13;;;;;;;2.67;2.20;;;31.40;84.60;;;;;;5075201;28;20209;-87
2022/09/13 11:55:47;;;;;;;3.20;2.50;;;31.20;84.30;;;;;;5075652;28;20216;-86
2022/09/13 11:58:23;;;;;;;2.85;2.63;;;31.00;82.00;;;;;;5075202;28;20233;-87
2022/09/13 12:00:57;;;;;;;2.47;2.30;;;31.20;82.90;;;;;;5075824;28;20254;-87
2022/09/13 12:03:30;;;;;;;2.60;2.40;;;31.50;81.30;;;;;;5075266;28;20208;-87
2022/09/13 12:06:02;;;;;;;3.05;2.63;;;31.50;81.70;;;;;;5075151;28;20201;-87
2022/09/13 12:08:35;;;;;;;2.60;2.40;;;31.40;80.20;;;;;;5075037;28;20319;-87
2022/09/13 12:11:08;;;;;;;2.00;1.90;;;31.50;79.30;;;;;;5075331;28;20208;-87
2022/09/13 12:13:48;;;;;;;2.58;2.38;;;31.20;80.10;;;;;;5075293;28;20213;-87
2022/09/13 12:16:23;;;;;;;2.78;2.58;;;30.90;79.60;;;;;;5074362;28;20221;-87
2022/09/13 12:18:55;;;;;;;2.58;2.30;;;31.00;78.70;;;;;;5074920;28;20280;-87
2022/09/13 12:21:28;;;;;;;3.03;2.50;;;30.70;80.10;;;;;;5075044;28;20295;-87
2022/09/13 12:24:03;;;;;;;2.50;2.30;;;31.00;82.40;;;;;;5075250;28;20217;-87
2022/09/13 12:26:39;;;;;;;2.78;2.55;;;31.00;81.80;;;;;;5074907;28;20219;-87
2022/09/13 12:29:15;;;;;;;2.58;2.38;;;31.20;80.50;;;;;;5074552;28;20237;-87
2022/09/13 12:31:45;;;;;;;2.67;2.30;;;31.50;82.60;;;;;;5074755;28;20227;-87
2022/09/13 12:34:21;;;;;;;2.75;2.53;;;31.60;80.30;;;;;;5074616;28;20204;-87
2022/09/13 12:37:10;;;;;;;3.00;2.80;;;31.60;77.30;;;;;;5074598;28;20231;-87
2022/09/13 12:39:59;;;;;;;2.33;2.13;;;31.20;78.50;;;;;;5074599;28;20240;-87
2022/09/13 12:43:12;;;;;;;2.28;2.08;;;30.90;77.40;;;;;;5074762;28;20243;-88
2022/09/13 12:46:17;;;;;;;2.28;2.08;;;31.00;78.60;;;;;;5074499;28;20205;-88
2022/09/13 12:49:04;;;;;;;2.72;2.53;;;30.70;79.10;;;;;;5074241;28;20332;-87
2022/09/13 12:51:53;;;;;;;3.00;2.80;;;30.30;78.20;;;;;;5074237;28;20219;-87
2022/09/13 12:54:54;;;;;;;3.03;2.75;;;29.90;77.70;;;;;;5074412;28;20209;-87
2022/09/13 12:57:41;;;;;;;5.35;1.95;;;29.60;79.80;;;;;;5074085;28;20224;-87
2022/09/13 13:00:22;;;;;;;2.85;2.63;;;29.80;79.30;;;;;;5074009;28;20216;-87
2022/09/13 13:03:01;;;;;;;1.98;1.88;;;30.10;79.10;;;;;;5074039;28;20219;-87
2022/09/13 13:05:33;;;;;;;2.70;2.30;;;30.40;80.30;;;;;;5074414;28;20204;-87
2022/09/13 13:08:05;;;;;;;2.63;2.40;;;30.90;80.80;;;;;;5074212;28;20248;-88
2022/09/13 13:10:36;;;;;;;2.53;2.33;;;31.00;78.20;;;;;;5073756;28;20276;-87
2022/09/13 13:13:19;;;;;;;2.40;2.20;;;31.30;77.50;;;;;;5074376;28;20208;-87
2022/09/13 13:15:59;;;;;;;5.80;2.17;;;31.60;77.10;;;;;;5074298;28;20201;-87
2022/09/13 13:18:30;;;;;;;3.58;2.33;;;31.90;77.50;;;;;;5073316;28;20229;-87
2022/09/13 13:21:31;;;;;;;7.55;2.95;;;31.90;74.50;;;;;;5074056;28;20216;-87
2022/09/13 13:24:36;;;;;;;1.98;1.88;;;32.00;74.70;;;;;;5074093;28;20207;-87
2022/09/13 13:27:43;;;;;;;2.65;2.22;;;31.90;70.90;;;;;;5072433;28;20201;-87